Time;durP1;ratioP1;P1;durP2;ratioP2;P2;SDS_P1;SDS_P2;PMS_P1;PMS_P2;Temp;Humidity;BMP_temperature;BMP_pressure;BME280_temperature;BME280_humidity;BME280_pressure;Samples;Min_cycle;Max_cycle;Signal;HPM_P1;HPM_P2
2022/02/07 00:01:49;;;;;;;;;;;;;;;5.44;74.28;98871.06;4932512;29;19973;-87
2022/02/07 00:04:20;;;;;;;;;;;;;;;5.42;74.26;98878.13;4931528;29;20380;-85
2022/02/07 00:06:45;;;;;;;;;;;;;;;5.48;74.81;98890.19;4933092;29;19923;-84
2022/02/07 00:09:10;;;;;;;;;;;;;;;5.45;74.58;98888.50;4931218;29;19922;-86
2022/02/07 00:11:36;;;;;;;;;;;;;;;5.44;74.60;98889.44;4929102;29;20033;-86
2022/02/07 00:14:01;;;;;;;;;;;;;;;5.49;75.03;98894.53;4933252;29;19930;-86
2022/02/07 00:16:27;;;;;;;;;;;;;;;5.53;75.04;98908.41;4935020;29;20302;-87
2022/02/07 00:18:52;;;;;;;;;;;;;;;5.51;74.99;98903.22;4935209;29;19973;-85
2022/02/07 00:21:17;;;;;;;;;;;;;;;5.52;75.05;98907.56;4934012;29;19918;-85
2022/02/07 00:23:43;;;;;;;;;;;;;;;5.53;75.12;98921.56;4934533;29;20438;-85
2022/02/07 00:26:09;;;;;;;;;;;;;;;5.54;74.97;98921.50;4935306;29;19942;-86
2022/02/07 04:23:05;;;;;;;;;;;;;;;2.38;89.96;99723.13;5159109;23;19934;-84
2022/02/07 04:25:30;;;;;;;;;;;;;;;2.20;89.33;99734.63;4944378;29;19923;-84
2022/02/07 04:27:56;;;;;;;;;;;;;;;1.93;88.96;99741.84;4927657;29;20009;-85
2022/02/07 04:30:21;;;;;;;;;;;;;;;1.89;88.70;99750.59;4945009;29;19926;-86
2022/02/07 04:32:46;;;;;;;;;;;;;;;1.84;88.03;99752.38;4945548;29;19919;-87
2022/02/07 04:35:12;;;;;;;;;;;;;;;1.69;87.83;99762.94;4944553;29;20041;-85
2022/02/07 04:37:37;;;;;;;;;;;;;;;1.48;87.42;99769.16;4943293;29;19922;-88
2022/02/07 04:40:03;;;;;;;;;;;;;;;1.45;87.11;99776.16;4944902;29;19929;-89
2022/02/07 04:42:28;;;;;;;;;;;;;;;1.34;86.41;99788.41;4944413;29;20397;-83
2022/02/07 04:50:45;;;;;;;;;;;;;;;1.59;87.42;99814.38;4944119;29;19925;-88
2022/02/07 04:53:17;;;;;;;;;;;;;;;2.05;90.82;99808.84;4943178;29;20386;-86
2022/02/07 04:55:49;;;;;;;;;;;;;;;2.36;95.35;99808.56;4944043;29;20385;-84
2022/02/07 04:58:58;;;;;;;;;;;;;;;2.61;97.83;99809.19;4945011;29;19922;-84
2022/02/07 05:03:41;;;;;;;;;;;;;;;2.75;100.00;99832.63;4943721;29;19923;-84
2022/02/07 05:14:18;;;;;;;;;;;;;;;2.63;100.00;99865.03;4944245;29;19935;-85
2022/02/07 05:16:44;;;;;;;;;;;;;;;2.71;100.00;99883.25;4926420;29;19979;-86
2022/02/07 05:19:09;;;;;;;;;;;;;;;2.78;100.00;99884.06;4944013;29;20010;-86
2022/02/07 05:21:34;;;;;;;;;;;;;;;2.78;100.00;99889.31;4943153;29;19918;-86
2022/02/07 05:24:00;;;;;;;;;;;;;;;2.73;100.00;99887.59;4944376;29;19923;-88
2022/02/07 05:26:25;;;;;;;;;;;;;;;2.76;100.00;99896.28;4926637;29;19974;-85
2022/02/07 05:28:51;;;;;;;;;;;;;;;2.71;100.00;99897.22;4943704;29;20370;-85
2022/02/07 08:43:48;;;;;;;;;;;;;;;2.72;77.35;100338.56;5109073;23;19982;-84
2022/02/07 08:46:13;;;;;;;;;;;;;;;2.71;77.45;100344.69;4928692;29;20372;-84
2022/02/07 08:48:41;;;;;;;;;;;;;;;2.72;77.37;100372.59;4928636;29;20012;-85
2022/02/07 08:51:06;;;;;;;;;;;;;;;2.73;77.43;100384.81;4944213;29;19933;-86
2022/02/07 08:53:38;;;;;;;;;;;;;;;2.74;77.36;100390.91;4945247;28;20313;-89
2022/02/07 08:56:04;;;;;;;;;;;;;;;2.76;77.16;100386.56;4926986;29;19929;-86
2022/02/07 08:58:32;;;;;;;;;;;;;;;2.71;77.13;100386.56;4943568;29;19966;-86
2022/02/07 09:01:15;;;;;;;;;;;;;;;2.75;77.10;100384.81;4928935;29;19915;-85
2022/02/07 09:04:08;;;;;;;;;;;;;;;2.78;77.21;100387.41;4926902;29;19919;-84
2022/02/07 09:06:36;;;;;;;;;;;;;;;2.77;77.21;100392.66;4944089;28;20005;-85
2022/02/07 09:11:30;;;;;;;;;;;;;;;2.79;76.91;100407.47;4944093;29;19942;-84
2022/02/07 09:13:57;;;;;;;;;;;;;;;2.79;76.79;100422.31;4942636;29;19961;-86
2022/02/07 09:16:31;;;;;;;;;;;;;;;2.80;76.78;100421.44;4944467;29;19919;-86
2022/02/07 09:19:00;;;;;;;;;;;;;;;2.80;76.77;100422.31;4927883;29;20099;-85
2022/02/07 09:21:28;;;;;;;;;;;;;;;2.86;76.98;100431.91;4943868;29;19923;-85
2022/02/07 09:23:53;;;;;;;;;;;;;;;2.84;76.82;100447.63;4944779;29;19922;-85
2022/02/07 09:26:18;;;;;;;;;;;;;;;2.87;76.78;100455.47;4926787;29;19975;-86
2022/02/07 09:28:44;;;;;;;;;;;;;;;2.90;76.67;100459.81;4942456;29;19922;-85
2022/02/07 09:31:10;;;;;;;;;;;;;;;2.86;76.32;100458.94;4926821;29;19924;-85
2022/02/07 09:33:36;;;;;;;;;;;;;;;2.88;76.25;100457.19;4927118;29;19918;-86
2022/02/07 09:36:01;;;;;;;;;;;;;;;2.92;76.33;100458.09;4944085;29;19969;-86
2022/02/07 09:38:27;;;;;;;;;;;;;;;2.92;76.29;100458.09;4943728;29;19919;-86
2022/02/07 09:40:53;;;;;;;;;;;;;;;2.90;75.96;100459.81;4926768;29;19918;-88
2022/02/07 09:43:19;;;;;;;;;;;;;;;2.92;75.88;100458.09;4926563;29;19927;-85
2022/02/07 09:45:45;;;;;;;;;;;;;;;2.95;75.77;100463.28;4942559;29;20014;-87
2022/02/07 09:48:11;;;;;;;;;;;;;;;2.96;75.77;100464.19;4942784;29;20322;-87
2022/02/07 09:50:37;;;;;;;;;;;;;;;2.94;75.55;100469.44;4944282;28;19933;-87
2022/02/07 09:53:04;;;;;;;;;;;;;;;2.95;75.53;100468.53;4944710;28;19957;-90
2022/02/07 09:55:29;;;;;;;;;;;;;;;2.95;75.46;100472.91;4943099;28;19922;-87
2022/02/07 09:57:55;;;;;;;;;;;;;;;2.99;75.21;100475.53;4945938;29;19926;-88
2022/02/07 10:00:25;;;;;;;;;;;;;;;3.01;75.17;100483.38;4961861;28;19929;-87
2022/02/07 10:03:03;;;;;;;;;;;;;;;3.00;74.90;100484.25;4945955;29;20017;-87
2022/02/07 10:05:32;;;;;;;;;;;;;;;3.01;74.99;100479.00;4946316;29;19929;-87
2022/02/07 10:15:39;;;;;;;;;;;;;;;3.08;73.88;100512.19;4947281;29;19926;-86
2022/02/07 10:18:15;;;;;;;;;;;;;;;3.09;74.11;100521.78;4947112;28;19919;-89
2022/02/07 10:21:33;;;;;;;;;;;;;;;3.09;74.05;100523.50;4945583;29;20025;-85
2022/02/07 10:35:16;;;;;;;;;;;;;;;3.20;73.66;100568.03;4946811;29;19929;-88
2022/02/07 10:40:27;;;;;;;;;;;;;;;3.18;73.39;100577.66;4947172;29;19918;-86
2022/02/07 10:45:32;;;;;;;;;;;;;;;3.24;73.03;100596.00;4947007;29;19969;-85
2022/02/07 10:47:59;;;;;;;;;;;;;;;3.25;73.01;100598.56;4929839;29;19918;-88
2022/02/07 10:50:24;;;;;;;;;;;;;;;3.29;73.49;100604.72;4929253;29;19919;-88
2022/02/07 10:52:54;;;;;;;;;;;;;;;3.27;73.30;100607.34;4946932;28;20287;-88
2022/02/07 10:55:22;;;;;;;;;;;;;;;3.28;73.33;100605.56;4928813;29;19919;-88
2022/02/07 10:57:47;;;;;;;;;;;;;;;3.25;72.97;100613.44;4927818;29;20361;-86
2022/02/07 11:00:20;;;;;;;;;;;;;;;3.26;72.59;100623.06;4946128;29;19925;-87
2022/02/07 11:03:01;;;;;;;;;;;;;;;3.25;72.09;100630.00;4929250;29;19919;-88
2022/02/07 11:05:30;;;;;;;;;;;;;;;3.32;72.67;100635.25;4929102;29;19930;-87
2022/02/07 11:08:06;;;;;;;;;;;;;;;3.33;72.23;100640.50;4928633;29;19922;-88
2022/02/07 11:10:51;;;;;;;;;;;;;;;3.34;72.00;100649.25;4929362;29;20424;-88
2022/02/07 11:13:45;;;;;;;;;;;;;;;3.38;72.09;100651.88;4927582;29;20061;-88
2022/02/07 11:16:22;;;;;;;;;;;;;;;3.38;71.77;100653.59;4946530;29;19919;-89
2022/02/07 11:24:18;;;;;;;;;;;;;;;3.40;71.72;100663.22;4946311;29;19961;-86
2022/02/07 11:26:49;;;;;;;;;;;;;;;3.42;71.63;100663.22;4927903;29;19962;-88
2022/02/07 11:29:34;;;;;;;;;;;;;;;3.45;71.51;100671.97;4946160;29;19926;-89
2022/02/07 11:32:00;;;;;;;;;;;;;;;3.48;71.50;100689.44;4945487;29;19918;-87
2022/02/07 11:34:39;;;;;;;;;;;;;;;3.49;71.16;100687.69;4945463;29;20389;-89
2022/02/07 11:37:23;;;;;;;;;;;;;;;3.57;71.31;100693.78;4928161;29;19929;-88
2022/02/07 11:39:49;;;;;;;;;;;;;;;3.54;71.33;100694.69;4945650;29;19918;-87
2022/02/07 11:42:15;;;;;;;;;;;;;;;3.57;71.32;100688.56;4927260;29;19986;-87
2022/02/07 11:44:43;;;;;;;;;;;;;;;3.55;71.14;100695.56;4940385;29;20362;-88
2022/02/07 11:47:10;;;;;;;;;;;;;;;3.56;71.28;100699.94;4945549;28;19950;-88
2022/02/07 11:49:40;;;;;;;;;;;;;;;3.60;71.16;100704.28;4944029;29;19923;-86
2022/02/07 11:52:31;;;;;;;;;;;;;;;3.60;71.18;100705.16;4945930;28;20334;-86
2022/02/07 11:54:57;;;;;;;;;;;;;;;3.67;71.35;100692.03;4943357;28;19926;-88
2022/02/07 11:57:24;;;;;;;;;;;;;;;3.67;71.32;100695.56;4942285;29;20031;-89
2022/02/07 11:59:57;;;;;;;;;;;;;;;3.70;71.37;100694.66;4945234;29;19926;-88
2022/02/07 12:02:33;;;;;;;;;;;;;;;3.69;71.27;100704.28;4945055;28;19969;-89
2022/02/07 12:04:59;;;;;;;;;;;;;;;3.74;71.24;100710.41;4959563;28;20294;-88
2022/02/07 12:07:37;;;;;;;;;;;;;;;3.76;71.20;100711.25;4944921;29;19915;-89
2022/02/07 12:12:36;;;;;;;;;;;;;;;3.76;71.02;100708.63;4943513;29;19929;-89
2022/02/07 12:15:16;;;;;;;;;;;;;;;3.81;71.14;100713.88;4945095;29;19918;-85
2022/02/07 12:17:52;;;;;;;;;;;;;;;3.80;71.06;100718.25;4944653;29;20049;-88
2022/02/07 12:20:19;;;;;;;;;;;;;;;3.81;71.04;100729.63;4942525;28;19990;-88
2022/02/07 12:22:49;;;;;;;;;;;;;;;3.85;70.65;100725.28;4945237;29;19919;-86
2022/02/07 12:25:30;;;;;;;;;;;;;;;3.87;70.77;100728.75;4943738;29;20009;-86
2022/02/07 12:27:59;;;;;;;;;;;;;;;3.87;70.85;100728.75;4957421;28;19926;-88
2022/02/07 12:30:32;;;;;;;;;;;;;;;3.88;70.49;100740.97;4944667;28;19919;-88
2022/02/07 12:33:03;;;;;;;;;;;;;;;3.90;70.38;100740.09;4944526;29;19919;-88
2022/02/07 12:35:29;;;;;;;;;;;;;;;3.90;70.22;100727.00;4944288;29;19929;-87
2022/02/07 12:37:56;;;;;;;;;;;;;;;3.91;70.17;100734.00;4944927;28;19918;-86
2022/02/07 12:40:21;;;;;;;;;;;;;;;3.93;70.15;100724.38;4943382;29;20041;-84
2022/02/07 12:42:49;;;;;;;;;;;;;;;3.99;69.98;100720.88;4942835;29;20384;-85
2022/02/07 12:45:14;;;;;;;;;;;;;;;4.03;69.90;100729.63;4927316;29;19919;-86
2022/02/07 12:47:40;;;;;;;;;;;;;;;4.01;69.93;100727.00;4927040;29;20271;-85
2022/02/07 12:50:07;;;;;;;;;;;;;;;4.09;70.17;100730.47;4944794;29;19926;-84
2022/02/07 12:52:34;;;;;;;;;;;;;;;4.30;71.84;100731.31;4927694;29;19923;-85
2022/02/07 12:54:59;;;;;;;;;;;;;;;4.49;73.91;100734.78;4943927;29;20560;-87
2022/02/07 12:57:26;;;;;;;;;;;;;;;4.54;75.74;100731.25;4942675;29;19919;-84
2022/02/07 12:59:52;;;;;;;;;;;;;;;4.55;77.62;100738.25;4944116;29;19978;-85
2022/02/07 13:02:25;;;;;;;;;;;;;;;4.54;78.94;100710.25;4927377;29;19915;-85
2022/02/07 13:04:50;;;;;;;;;;;;;;;4.49;80.29;100716.41;4926937;29;20305;-88
2022/02/07 13:07:20;;;;;;;;;;;;;;;4.40;81.74;100722.53;4927173;29;19924;-86
2022/02/07 13:09:52;;;;;;;;;;;;;;;4.34;83.14;100726.06;4944098;29;19926;-86
2022/02/07 13:12:25;;;;;;;;;;;;;;;4.24;84.32;100728.72;4942927;29;19941;-86
2022/02/07 13:14:51;;;;;;;;;;;;;;;4.28;85.18;100735.72;4927459;29;19915;-86
2022/02/07 13:17:20;;;;;;;;;;;;;;;4.24;85.76;100737.44;4944148;29;20292;-88
2022/02/07 13:19:47;;;;;;;;;;;;;;;4.26;86.92;100737.44;4926938;29;20301;-86
2022/02/07 13:22:15;;;;;;;;;;;;;;;4.34;88.72;100738.28;4926657;29;19930;-84
2022/02/07 13:24:41;;;;;;;;;;;;;;;4.44;92.27;100731.31;4943867;29;20477;-85
2022/02/07 13:27:10;;;;;;;;;;;;;;;4.70;96.08;100728.56;4942754;29;19922;-89
2022/02/07 13:29:41;;;;;;;;;;;;;;;4.90;99.27;100733.75;4944145;29;20005;-88
2022/02/07 13:32:07;;;;;;;;;;;;;;;5.04;100.00;100731.03;4930215;29;19922;-90
2022/02/07 13:34:34;;;;;;;;;;;;;;;5.15;100.00;100734.50;4930978;29;19978;-90
2022/02/07 13:37:09;;;;;;;;;;;;;;;5.25;100.00;100727.44;4947996;29;19919;-90
2022/02/07 13:39:52;;;;;;;;;;;;;;;5.32;100.00;100723.03;4947490;29;20362;-87
2022/02/07 13:42:22;;;;;;;;;;;;;;;5.43;100.00;100735.19;4946728;29;19973;-86
2022/02/07 13:44:48;;;;;;;;;;;;;;;5.54;100.00;100731.66;4947558;29;19929;-90
2022/02/07 13:47:13;;;;;;;;;;;;;;;5.57;100.00;100740.38;4930857;29;19923;-85
2022/02/07 13:49:58;;;;;;;;;;;;;;;5.69;100.00;100744.66;4930412;29;19919;-88
2022/02/07 13:52:27;;;;;;;;;;;;;;;5.70;100.00;100727.16;4931721;29;20382;-86
2022/02/07 13:54:53;;;;;;;;;;;;;;;5.77;100.00;100731.44;4930112;29;19942;-88
2022/02/07 13:57:18;;;;;;;;;;;;;;;5.87;100.00;100738.41;4945972;29;20366;-89
2022/02/07 13:59:43;;;;;;;;;;;;;;;5.92;100.00;100741.84;4930321;29;20334;-88
2022/02/07 14:02:25;;;;;;;;;;;;;;;5.95;100.00;100730.41;4930348;29;19926;-87
2022/02/07 14:04:51;;;;;;;;;;;;;;;6.00;100.00;100736.56;4930250;29;19918;-89
2022/02/07 14:07:17;;;;;;;;;;;;;;;6.03;100.00;100728.66;4930144;29;19929;-87
2022/02/07 14:09:43;;;;;;;;;;;;;;;6.07;100.00;100732.13;4929826;29;19975;-88
2022/02/07 14:12:09;;;;;;;;;;;;;;;6.11;100.00;100739.97;4945920;29;19922;-88
2022/02/07 14:14:34;;;;;;;;;;;;;;;6.13;100.00;100743.44;4929716;29;19957;-85
2022/02/07 14:17:00;;;;;;;;;;;;;;;6.15;100.00;100751.34;4929795;29;20012;-84
2022/02/07 14:19:37;;;;;;;;;;;;;;;6.22;100.00;100755.63;4947415;29;20362;-85
2022/02/07 14:22:02;;;;;;;;;;;;;;;6.27;100.00;100764.38;4930169;29;19914;-86
2022/02/07 14:24:28;;;;;;;;;;;;;;;6.30;100.00;100748.56;4947156;29;20396;-86
2022/02/07 14:26:54;;;;;;;;;;;;;;;5.96;100.00;100755.84;4928305;29;20374;-85
2022/02/07 14:29:19;;;;;;;;;;;;;;;5.16;100.00;100761.66;4946719;28;19941;-87
2022/02/07 14:31:44;;;;;;;;;;;;;;;4.88;100.00;100759.13;4946968;29;19919;-85
2022/02/07 14:34:09;;;;;;;;;;;;;;;4.55;100.00;100768.88;4948455;29;19950;-85
2022/02/07 14:36:36;;;;;;;;;;;;;;;4.55;99.01;100772.38;4945637;29;19919;-90
2022/02/07 14:39:02;;;;;;;;;;;;;;;4.41;96.95;100765.41;4930063;29;19925;-90
2022/02/07 14:41:28;;;;;;;;;;;;;;;4.34;95.57;100769.78;4948641;28;20004;-85
2022/02/07 14:43:59;;;;;;;;;;;;;;;4.37;94.40;100777.66;4933823;29;19922;-90
2022/02/07 14:46:32;;;;;;;;;;;;;;;4.26;93.52;100780.31;4945842;29;20293;-88
2022/02/07 14:48:58;;;;;;;;;;;;;;;4.22;92.70;100780.31;4946694;29;19958;-91
2022/02/07 14:51:23;;;;;;;;;;;;;;;4.09;91.78;100782.06;4946610;28;19962;-90
2022/02/07 14:53:49;;;;;;;;;;;;;;;4.00;91.41;100786.47;4946515;29;19923;-88
2022/02/07 14:56:15;;;;;;;;;;;;;;;3.97;90.74;100782.94;4945717;29;19919;-90
2022/02/07 14:58:40;;;;;;;;;;;;;;;3.98;90.38;100775.06;4944150;29;19994;-89
2022/02/07 15:01:05;;;;;;;;;;;;;;;3.82;89.61;100787.31;4948267;29;20016;-86
2022/02/07 15:03:31;;;;;;;;;;;;;;;3.82;89.21;100792.53;4947021;29;20267;-88
2022/02/07 15:05:57;;;;;;;;;;;;;;;3.84;88.77;100794.31;4946648;29;19929;-85
2022/02/07 15:08:23;;;;;;;;;;;;;;;3.82;88.19;100810.03;4945658;28;20504;-86
2022/02/07 15:10:49;;;;;;;;;;;;;;;3.72;87.75;100805.63;4944318;29;19926;-86
2022/02/07 15:13:14;;;;;;;;;;;;;;;3.74;87.26;100798.66;4960113;28;19938;-87
2022/02/07 15:15:40;;;;;;;;;;;;;;;3.74;86.95;100796.91;4945543;29;19926;-85
2022/02/07 15:18:07;;;;;;;;;;;;;;;3.76;86.36;100800.41;4945524;29;19982;-85
2022/02/07 15:20:36;;;;;;;;;;;;;;;3.70;86.06;100803.03;4946404;28;20334;-86
2022/02/07 15:23:01;;;;;;;;;;;;;;;3.72;85.62;100814.38;4946883;29;19926;-88
2022/02/07 15:25:31;;;;;;;;;;;;;;;3.65;85.62;100815.25;4948107;29;19923;-90
2022/02/07 15:28:00;;;;;;;;;;;;;;;3.65;85.58;100812.63;4944902;29;19923;-89
2022/02/07 15:30:29;;;;;;;;;;;;;;;3.57;85.31;100819.59;4945731;29;19923;-88
2022/02/07 15:32:58;;;;;;;;;;;;;;;3.62;85.30;100824.00;4946195;29;19978;-86
2022/02/07 15:35:23;;;;;;;;;;;;;;;3.52;85.19;100819.56;4946977;29;19923;-86
2022/02/07 15:37:48;;;;;;;;;;;;;;;3.59;84.92;100817.84;4945681;29;19967;-84
2022/02/07 15:40:14;;;;;;;;;;;;;;;3.47;84.67;100823.06;4945260;29;19966;-86
2022/02/07 15:42:39;;;;;;;;;;;;;;;3.37;84.88;100825.66;4945367;29;19974;-86
2022/02/07 15:45:05;;;;;;;;;;;;;;;3.47;84.87;100817.84;4945027;29;20386;-85
2022/02/07 15:47:34;;;;;;;;;;;;;;;3.48;84.64;100815.22;4945937;28;19919;-87
2022/02/07 15:50:08;;;;;;;;;;;;;;;3.33;84.33;100810.78;4945550;28;19982;-85
2022/02/07 15:52:34;;;;;;;;;;;;;;;3.31;84.33;100817.78;4953357;28;19930;-85
2022/02/07 15:54:59;;;;;;;;;;;;;;;3.43;84.24;100812.59;4945856;28;19923;-85
2022/02/07 15:57:25;;;;;;;;;;;;;;;3.37;84.07;100816.94;4942962;29;19926;-85
2022/02/07 15:59:53;;;;;;;;;;;;;;;3.23;83.89;100817.75;4943738;29;21599;-87
2022/02/07 16:02:18;;;;;;;;;;;;;;;3.19;83.84;100818.63;4945204;29;19926;-86
2022/02/07 16:04:43;;;;;;;;;;;;;;;3.25;83.89;100823.00;4959634;28;19977;-85
2022/02/07 16:07:10;;;;;;;;;;;;;;;3.19;83.51;100825.59;4943731;29;19919;-87
2022/02/07 16:09:35;;;;;;;;;;;;;;;3.22;83.81;100822.97;4945004;28;20333;-87
2022/02/07 16:12:08;;;;;;;;;;;;;;;3.19;83.81;100836.06;4944189;29;19919;-86
2022/02/07 16:14:34;;;;;;;;;;;;;;;3.21;83.63;100839.59;4945885;29;20321;-85
2022/02/07 16:17:00;;;;;;;;;;;;;;;3.23;83.19;100843.06;4942413;29;20365;-85
2022/02/07 16:19:29;;;;;;;;;;;;;;;3.15;82.85;100839.56;4945202;29;19933;-87
2022/02/07 16:21:54;;;;;;;;;;;;;;;3.15;83.07;100844.78;4945740;29;20400;-85
2022/02/07 16:24:20;;;;;;;;;;;;;;;3.07;83.02;100847.38;4945513;29;19919;-87
2022/02/07 16:26:47;;;;;;;;;;;;;;;3.09;82.99;100843.91;4942616;29;19929;-88
2022/02/07 16:29:12;;;;;;;;;;;;;;;3.16;82.75;100851.75;4959727;28;19921;-87
2022/02/07 16:31:37;;;;;;;;;;;;;;;3.05;82.70;100849.97;4943873;28;20329;-84
2022/02/07 16:34:03;;;;;;;;;;;;;;;3.06;83.02;100846.50;4944417;28;19919;-88
2022/02/07 16:36:28;;;;;;;;;;;;;;;3.08;82.83;100849.13;4944402;29;19930;-84
2022/02/07 16:38:54;;;;;;;;;;;;;;;3.06;82.81;100843.00;4945003;29;19972;-86
2022/02/07 16:41:23;;;;;;;;;;;;;;;3.17;82.56;100848.28;4944868;28;19918;-86
2022/02/07 16:43:49;;;;;;;;;;;;;;;3.00;82.64;100853.44;4942126;29;19993;-88
2022/02/07 16:46:28;;;;;;;;;;;;;;;2.99;82.75;100852.56;4959105;28;19922;-88
2022/02/07 16:48:54;;;;;;;;;;;;;;;3.05;82.47;100857.84;4943556;28;19925;-88
2022/02/07 16:51:20;;;;;;;;;;;;;;;3.01;82.15;100860.44;4944066;28;19918;-87
2022/02/07 16:53:45;;;;;;;;;;;;;;;2.97;82.14;100871.75;4945010;29;19942;-84
2022/02/07 16:56:10;;;;;;;;;;;;;;;3.01;82.05;100877.00;4942688;29;19927;-89
2022/02/07 16:58:35;;;;;;;;;;;;;;;3.03;82.04;100872.69;4943425;29;19922;-87
2022/02/07 17:01:01;;;;;;;;;;;;;;;2.93;82.03;100878.72;4944395;29;19923;-84
2022/02/07 17:03:26;;;;;;;;;;;;;;;3.00;82.11;100885.75;4944579;29;20025;-88
2022/02/07 17:05:51;;;;;;;;;;;;;;;2.88;82.03;100890.91;4942521;28;19930;-84
2022/02/07 17:08:17;;;;;;;;;;;;;;;2.85;81.97;100876.03;4944634;29;19919;-84
2022/02/07 17:10:44;;;;;;;;;;;;;;;2.94;82.03;100883.09;4943243;29;20353;-85
2022/02/07 17:13:09;;;;;;;;;;;;;;;2.90;82.09;100882.19;4942882;29;19961;-83
2022/02/07 17:15:35;;;;;;;;;;;;;;;2.93;81.59;100896.16;4943174;29;20001;-84
2022/02/07 17:18:00;;;;;;;;;;;;;;;2.81;81.66;100889.09;4942562;29;20293;-85
2022/02/07 17:20:25;;;;;;;;;;;;;;;2.87;81.66;100904.84;4943896;29;19974;-88
2022/02/07 17:22:51;;;;;;;;;;;;;;;2.72;81.44;100896.03;4946292;29;19929;-84
2022/02/07 17:25:17;;;;;;;;;;;;;;;2.79;81.25;100901.31;4943920;29;19923;-85
2022/02/07 17:27:44;;;;;;;;;;;;;;;2.81;80.83;100904.81;4942561;29;19923;-84
2022/02/07 17:30:10;;;;;;;;;;;;;;;2.81;80.80;100902.19;4944273;28;20424;-83
2022/02/07 17:32:36;;;;;;;;;;;;;;;2.79;80.81;100901.31;4943499;29;19926;-87
2022/02/07 17:35:05;;;;;;;;;;;;;;;2.82;81.00;100899.56;4944303;28;19970;-83
2022/02/07 17:37:30;;;;;;;;;;;;;;;2.76;80.98;100901.28;4944185;29;19922;-84
2022/02/07 17:39:56;;;;;;;;;;;;;;;2.75;80.77;100900.41;4945177;28;19929;-84
2022/02/07 17:42:26;;;;;;;;;;;;;;;2.80;80.53;100903.06;4943237;29;20029;-84
2022/02/07 17:44:51;;;;;;;;;;;;;;;2.73;80.61;100908.25;4943930;28;19927;-86
2022/02/07 17:47:17;;;;;;;;;;;;;;;2.72;80.67;100901.25;4943824;29;19930;-83
2022/02/07 17:49:42;;;;;;;;;;;;;;;2.60;80.24;100902.91;4944454;29;20298;-83
2022/02/07 17:52:07;;;;;;;;;;;;;;;2.64;79.97;100902.09;4944758;28;19923;-84
2022/02/07 17:54:33;;;;;;;;;;;;;;;2.71;80.22;100910.00;4944686;29;20298;-87
2022/02/07 17:56:59;;;;;;;;;;;;;;;2.63;80.08;100911.69;4925253;29;19926;-83
2022/02/07 17:59:25;;;;;;;;;;;;;;;2.60;80.16;100905.53;4943816;29;19919;-88
2022/02/07 18:01:53;;;;;;;;;;;;;;;2.62;80.08;100914.28;4926163;29;20326;-86
2022/02/07 18:04:18;;;;;;;;;;;;;;;2.68;79.77;100907.34;4943860;29;19923;-85
2022/02/07 18:06:43;;;;;;;;;;;;;;;2.61;79.85;100902.94;4943646;29;19925;-86
2022/02/07 18:09:09;;;;;;;;;;;;;;;2.69;79.69;100906.47;4926722;29;19929;-84
2022/02/07 18:11:34;;;;;;;;;;;;;;;2.64;79.51;100907.31;4926844;29;20437;-84
2022/02/07 18:14:00;;;;;;;;;;;;;;;2.64;79.47;100908.19;4925279;29;20005;-85
2022/02/07 18:16:25;;;;;;;;;;;;;;;2.59;79.59;100904.66;4945653;28;19950;-86
2022/02/07 18:18:51;;;;;;;;;;;;;;;2.64;79.34;100908.19;4947299;29;19919;-87
2022/02/07 18:21:24;;;;;;;;;;;;;;;2.65;79.30;100917.81;4947368;29;19918;-83
2022/02/07 18:23:49;;;;;;;;;;;;;;;2.65;78.96;100916.91;4945508;29;19919;-87
2022/02/07 18:26:15;;;;;;;;;;;;;;;2.62;79.02;100920.41;4929767;29;19919;-86
2022/02/07 18:28:40;;;;;;;;;;;;;;;2.63;78.94;100922.16;4928820;29;19918;-84
2022/02/07 18:31:07;;;;;;;;;;;;;;;2.59;78.76;100919.50;4946898;29;19941;-86
2022/02/07 18:33:33;;;;;;;;;;;;;;;2.62;79.01;100923.00;4947588;29;19997;-84
2022/02/07 18:35:59;;;;;;;;;;;;;;;2.63;78.61;100932.63;4946574;29;20013;-86
2022/02/07 18:38:27;;;;;;;;;;;;;;;2.61;78.68;100936.94;4947255;29;20025;-84
2022/02/07 18:41:00;;;;;;;;;;;;;;;2.53;78.58;100939.50;4948096;29;19926;-84
2022/02/07 18:43:28;;;;;;;;;;;;;;;2.58;78.58;100939.53;4930620;29;19927;-86
2022/02/07 18:45:53;;;;;;;;;;;;;;;2.56;78.31;100943.88;4947110;29;20259;-84
2022/02/07 18:48:19;;;;;;;;;;;;;;;2.63;78.39;100936.97;4946819;29;19922;-86
2022/02/07 18:50:44;;;;;;;;;;;;;;;2.59;78.04;100938.69;4945205;29;19918;-85
2022/02/07 18:53:10;;;;;;;;;;;;;;;2.60;77.81;100936.94;4945455;28;19930;-84
2022/02/07 18:55:36;;;;;;;;;;;;;;;2.56;77.83;100936.03;4946988;28;20016;-83
2022/02/07 18:58:09;;;;;;;;;;;;;;;2.64;77.88;100943.97;4945100;29;20382;-84
2022/02/07 19:00:38;;;;;;;;;;;;;;;2.55;77.94;100934.28;4945744;29;19919;-83
2022/02/07 19:03:15;;;;;;;;;;;;;;;2.58;77.91;100939.53;4946376;28;19918;-83
2022/02/07 19:06:01;;;;;;;;;;;;;;;2.58;77.73;100946.53;4946154;29;20026;-84
2022/02/07 19:08:28;;;;;;;;;;;;;;;2.57;77.79;100950.88;4945816;28;20298;-85
2022/02/07 19:10:54;;;;;;;;;;;;;;;2.51;77.48;100949.09;4945908;29;19926;-87
2022/02/07 19:13:19;;;;;;;;;;;;;;;2.53;77.55;100947.34;4945924;29;19926;-85
2022/02/07 19:15:45;;;;;;;;;;;;;;;2.59;77.51;100946.53;4946728;29;20282;-87
2022/02/07 19:18:12;;;;;;;;;;;;;;;2.50;77.21;100938.59;4944609;29;20795;-83
2022/02/07 19:20:40;;;;;;;;;;;;;;;2.54;77.40;100937.78;4945460;29;19926;-83
2022/02/07 19:23:13;;;;;;;;;;;;;;;2.50;77.45;100935.97;4946414;28;19926;-83
2022/02/07 19:25:53;;;;;;;;;;;;;;;2.49;77.46;100935.13;4944724;29;20398;-84
2022/02/07 19:28:20;;;;;;;;;;;;;;;2.49;77.70;100929.88;4942760;28;19918;-83
2022/02/07 19:30:50;;;;;;;;;;;;;;;2.53;77.66;100928.16;4946817;29;20389;-84
2022/02/07 19:33:16;;;;;;;;;;;;;;;2.53;77.53;100930.78;4944281;29;19970;-86
2022/02/07 19:35:45;;;;;;;;;;;;;;;2.50;77.50;100925.53;4945624;29;19919;-86
2022/02/07 19:38:10;;;;;;;;;;;;;;;2.51;77.29;100927.28;4945602;29;19922;-83
2022/02/07 19:40:41;;;;;;;;;;;;;;;2.55;77.14;100934.28;4945839;29;20363;-83
2022/02/07 19:45:36;;;;;;;;;;;;;;;2.50;76.94;100925.53;4945784;29;20405;-88
2022/02/07 19:48:03;;;;;;;;;;;;;;;2.51;77.05;100922.91;4945472;29;19931;-83
2022/02/07 19:50:28;;;;;;;;;;;;;;;2.51;76.91;100927.28;4945093;29;19919;-86
2022/02/07 19:52:54;;;;;;;;;;;;;;;2.48;76.92;100927.25;4946095;28;20285;-87
2022/02/07 19:55:21;;;;;;;;;;;;;;;2.51;76.67;100922.91;4945085;29;19954;-86
2022/02/07 19:57:47;;;;;;;;;;;;;;;2.50;76.50;100935.97;4943853;29;19933;-87
2022/02/07 20:00:16;;;;;;;;;;;;;;;2.53;76.39;100952.56;4945109;29;19930;-83
2022/02/07 20:02:44;;;;;;;;;;;;;;;2.54;76.23;100951.72;4944858;29;20021;-86
2022/02/07 20:05:13;;;;;;;;;;;;;;;2.53;76.32;100963.03;4928254;29;20270;-87
2022/02/07 20:07:38;;;;;;;;;;;;;;;2.55;76.44;100957.81;4945232;29;19919;-87
2022/02/07 20:10:07;;;;;;;;;;;;;;;2.49;76.15;100955.16;4946342;28;20382;-84
2022/02/07 20:12:33;;;;;;;;;;;;;;;2.49;76.18;100956.06;4926684;29;19941;-87
2022/02/07 20:14:59;;;;;;;;;;;;;;;2.50;76.16;100962.16;4944654;28;19918;-86
2022/02/07 20:17:25;;;;;;;;;;;;;;;2.45;76.07;100963.84;4927565;29;19977;-87
2022/02/07 20:19:51;;;;;;;;;;;;;;;2.50;76.11;100962.16;4944783;29;19954;-86
2022/02/07 20:22:17;;;;;;;;;;;;;;;2.54;76.22;100966.56;4947672;28;20389;-85
2022/02/07 20:24:44;;;;;;;;;;;;;;;2.51;75.98;100963.91;4947435;28;19964;-84
2022/02/07 20:27:11;;;;;;;;;;;;;;;2.53;76.16;100973.50;4945700;28;19923;-83
2022/02/07 20:29:36;;;;;;;;;;;;;;;2.50;76.01;100972.63;4945429;29;20019;-88
2022/02/07 20:32:11;;;;;;;;;;;;;;;2.53;75.85;100970.03;4944376;29;20302;-88
2022/02/07 20:34:37;;;;;;;;;;;;;;;2.50;75.83;100975.22;4944602;29;20322;-83
2022/02/07 20:37:03;;;;;;;;;;;;;;;2.51;75.86;100974.38;4928575;29;19973;-87
2022/02/07 20:39:29;;;;;;;;;;;;;;;2.50;75.63;100977.84;4943618;28;20401;-84
2022/02/07 20:41:54;;;;;;;;;;;;;;;2.50;75.44;100967.38;4944316;29;19926;-86
2022/02/07 20:44:19;;;;;;;;;;;;;;;2.53;75.27;100972.66;4943869;29;19977;-85
2022/02/07 20:46:50;;;;;;;;;;;;;;;2.48;75.23;100974.34;4944920;29;19923;-84
2022/02/07 20:49:15;;;;;;;;;;;;;;;2.51;75.13;100979.63;4927834;29;20381;-84
2022/02/07 20:51:40;;;;;;;;;;;;;;;2.44;75.05;100977.78;4944562;28;20066;-83
2022/02/07 20:54:06;;;;;;;;;;;;;;;2.47;74.99;100989.19;4944320;29;19934;-84